Time;durP1;ratioP1;P1;durP2;ratioP2;P2;SDS_P1;SDS_P2;PMS_P1;PMS_P2;Temp;Humidity;BMP_temperature;BMP_pressure;BME280_temperature;BME280_humidity;BME280_pressure;Samples;Min_cycle;Max_cycle;Signal;HPM_P1;HPM_P2
2023/06/17 07:11:39;;;;;;;3.95;2.70;;;30.90;77.40;;;;;;3528441;23;20285;-69
2023/06/17 07:14:06;;;;;;;3.85;2.88;;;30.40;76.90;;;;;;4928259;29;20213;-71
2023/06/17 07:16:33;;;;;;;4.28;2.72;;;30.00;77.20;;;;;;4936743;29;20205;-71
2023/06/17 07:19:00;;;;;;;6.03;3.03;;;29.20;78.80;;;;;;4921192;29;20240;-71
2023/06/17 07:21:26;;;;;;;7.35;3.28;;;29.60;79.40;;;;;;4909640;29;20703;-70
2023/06/17 07:23:53;;;;;;;4.25;3.22;;;29.80;78.10;;;;;;4918386;29;20296;-69
2023/06/17 07:26:20;;;;;;;5.15;2.65;;;30.00;79.00;;;;;;4918785;29;20212;-70
2023/06/17 07:28:48;;;;;;;5.38;3.10;;;29.90;78.70;;;;;;4918911;29;20237;-70
2023/06/17 07:31:15;;;;;;;3.28;2.78;;;29.90;78.80;;;;;;4919034;29;20572;-69
2023/06/17 07:33:42;;;;;;;4.40;3.20;;;29.30;80.30;;;;;;4918310;29;20266;-67
2023/06/17 07:36:09;;;;;;;6.22;3.25;;;29.20;80.60;;;;;;4917786;29;20216;-67
2023/06/17 07:38:36;;;;;;;5.57;3.30;;;29.40;80.60;;;;;;4917106;29;20245;-71
2023/06/17 07:41:03;;;;;;;3.33;2.75;;;29.30;81.50;;;;;;4917893;29;20209;-70
2023/06/17 07:43:30;;;;;;;4.30;2.95;;;29.60;80.90;;;;;;4917505;29;20568;-71
2023/06/17 07:45:58;;;;;;;5.22;3.05;;;29.70;80.40;;;;;;4917427;29;20213;-70
2023/06/17 07:48:25;;;;;;;3.08;2.72;;;30.20;79.30;;;;;;4916932;29;20236;-71
2023/06/17 07:50:52;;;;;;;4.90;3.33;;;30.30;81.10;;;;;;4917617;29;20218;-73
2023/06/17 07:53:19;;;;;;;3.67;2.85;;;30.80;78.30;;;;;;4917302;29;20206;-69
2023/06/17 07:55:47;;;;;;;4.18;2.97;;;30.90;78.60;;;;;;4916944;29;20772;-69
2023/06/17 07:58:14;;;;;;;4.60;3.00;;;30.80;78.80;;;;;;4916570;29;20233;-68
2023/06/17 08:00:41;;;;;;;4.82;2.85;;;30.80;77.40;;;;;;4897972;29;20678;-73
2023/06/17 08:03:09;;;;;;;5.82;2.97;;;31.20;77.00;;;;;;4911500;29;20210;-69
2023/06/17 08:05:37;;;;;;;3.38;2.80;;;31.30;76.00;;;;;;4912708;29;20205;-66
2023/06/17 08:08:04;;;;;;;3.75;2.95;;;31.40;74.40;;;;;;4912099;29;20237;-67
2023/06/17 08:10:31;;;;;;;4.00;2.65;;;31.70;75.30;;;;;;4916028;29;20304;-67
2023/06/17 08:12:58;;;;;;;3.40;2.70;;;31.50;74.50;;;;;;4912390;29;20217;-70
2023/06/17 08:15:24;;;;;;;4.07;2.72;;;31.50;76.10;;;;;;4915132;29;20215;-68
2023/06/17 08:17:52;;;;;;;4.40;2.95;;;31.50;73.40;;;;;;4915097;29;20319;-67
2023/06/17 08:20:21;;;;;;;6.47;2.70;;;31.10;74.20;;;;;;4915155;29;20572;-70
2023/06/17 08:22:48;;;;;;;5.97;2.80;;;31.20;74.10;;;;;;4915476;29;20233;-69
2023/06/17 08:25:15;;;;;;;3.42;2.70;;;31.00;73.10;;;;;;4915344;29;20677;-70
2023/06/17 08:27:47;;;;;;;4.75;2.90;;;31.40;74.70;;;;;;4914820;29;21026;-71
2023/06/17 08:30:14;;;;;;;4.80;2.90;;;31.80;74.40;;;;;;4915234;29;20692;-69
2023/06/17 08:32:41;;;;;;;4.00;2.92;;;32.20;73.90;;;;;;4915293;29;20296;-67
2023/06/17 08:35:08;;;;;;;6.30;3.05;;;32.20;74.30;;;;;;4914539;29;20206;-69
2023/06/17 08:37:44;;;;;;;4.03;2.95;;;32.60;76.20;;;;;;4914243;29;20234;-70
2023/06/17 08:40:14;;;;;;;4.65;3.10;;;33.20;74.70;;;;;;4914613;29;20209;-71
2023/06/17 08:42:42;;;;;;;4.43;2.90;;;32.70;73.00;;;;;;4914343;29;20219;-72
2023/06/17 08:45:09;;;;;;;3.58;2.70;;;32.50;73.10;;;;;;4915474;29;20210;-73
2023/06/17 08:47:37;;;;;;;3.80;2.72;;;32.40;74.00;;;;;;4915270;29;20211;-69
2023/06/17 08:50:06;;;;;;;6.18;3.08;;;31.90;72.80;;;;;;4911660;29;20481;-70
2023/06/17 08:52:34;;;;;;;5.45;3.15;;;31.50;75.40;;;;;;4915232;29;20653;-69
2023/06/17 08:55:03;;;;;;;3.75;2.70;;;31.90;73.80;;;;;;4916384;29;20688;-68
2023/06/17 08:57:31;;;;;;;3.40;2.80;;;32.40;73.20;;;;;;4915928;29;20244;-73
2023/06/17 08:59:58;;;;;;;6.95;2.80;;;32.40;73.80;;;;;;4915849;29;20273;-70
2023/06/17 09:02:25;;;;;;;3.92;2.70;;;32.20;74.60;;;;;;4916141;29;20220;-70
2023/06/17 09:04:52;;;;;;;3.92;2.70;;;31.70;75.20;;;;;;4916445;29;20217;-71
2023/06/17 09:07:19;;;;;;;4.85;2.80;;;31.80;75.80;;;;;;4916288;29;20209;-71
2023/06/17 09:09:49;;;;;;;2.90;2.60;;;32.10;74.40;;;;;;4916016;29;20324;-67
2023/06/17 09:12:17;;;;;;;3.55;2.60;;;32.50;74.50;;;;;;4915840;29;20210;-70
2023/06/17 09:14:45;;;;;;;4.50;3.10;;;32.60;72.50;;;;;;4916406;29;20205;-68
2023/06/17 09:17:24;;;;;;;3.08;2.63;;;32.30;71.00;;;;;;4915549;29;20213;-68
2023/06/17 09:19:53;;;;;;;4.18;2.60;;;32.30;73.20;;;;;;4915541;29;20676;-68
2023/06/17 09:22:20;;;;;;;4.20;2.72;;;32.00;71.90;;;;;;4916072;29;20198;-70
2023/06/17 09:24:47;;;;;;;3.67;2.42;;;32.20;72.70;;;;;;4916008;29;20220;-68
2023/06/17 09:27:22;;;;;;;2.92;2.35;;;32.10;74.90;;;;;;4916042;29;20209;-70
2023/06/17 09:30:06;;;;;;;3.05;2.42;;;32.10;73.70;;;;;;4916168;29;20245;-68
2023/06/17 09:32:39;;;;;;;2.97;2.60;;;31.80;73.80;;;;;;4916245;29;20205;-69
2023/06/17 09:35:07;;;;;;;4.68;2.90;;;31.90;73.30;;;;;;4916326;29;20580;-68
2023/06/17 09:37:35;;;;;;;5.05;2.90;;;32.10;73.20;;;;;;4915860;29;20216;-66
2023/06/17 09:40:02;;;;;;;6.50;2.40;;;32.30;75.90;;;;;;4916266;29;20301;-66
2023/06/17 09:42:31;;;;;;;3.67;2.80;;;32.80;74.80;;;;;;4915810;29;20214;-67
2023/06/17 09:45:03;;;;;;;3.25;2.60;;;32.80;74.30;;;;;;4915750;29;20663;-66
2023/06/17 09:47:33;;;;;;;3.47;2.55;;;32.40;73.60;;;;;;4915872;29;20676;-69
2023/06/17 09:50:03;;;;;;;3.22;2.70;;;32.10;72.30;;;;;;4917185;29;20542;-69
2023/06/17 09:52:32;;;;;;;3.72;2.67;;;32.50;74.20;;;;;;4919382;29;20641;-66
2023/06/17 09:54:59;;;;;;;4.13;2.50;;;32.50;72.20;;;;;;4919478;29;20622;-66
2023/06/17 09:57:31;;;;;;;5.55;2.67;;;32.90;71.80;;;;;;4919163;29;20210;-70
2023/06/17 10:00:00;;;;;;;3.40;2.55;;;32.40;72.40;;;;;;4919569;29;20209;-65
2023/06/17 10:02:28;;;;;;;4.80;2.67;;;32.30;73.50;;;;;;4919487;29;20214;-67
2023/06/17 10:04:55;;;;;;;3.72;2.60;;;32.30;73.00;;;;;;4919237;29;20292;-66
2023/06/17 10:07:25;;;;;;;3.67;3.03;;;32.10;72.50;;;;;;4919270;29;20727;-71
2023/06/17 10:09:53;;;;;;;3.80;2.30;;;32.20;74.60;;;;;;4919127;29;20767;-69
2023/06/17 10:12:22;;;;;;;3.55;2.58;;;32.10;74.00;;;;;;4918956;29;20669;-71
2023/06/17 10:14:49;;;;;;;4.00;2.50;;;31.60;74.40;;;;;;4919156;29;20687;-69
2023/06/17 10:17:21;;;;;;;6.43;2.90;;;31.10;74.00;;;;;;4919045;29;20241;-69
2023/06/17 10:19:49;;;;;;;3.67;2.50;;;31.00;73.80;;;;;;4918805;29;20249;-70
2023/06/17 10:22:19;;;;;;;3.28;2.45;;;30.60;74.20;;;;;;4919119;29;20572;-66
2023/06/17 10:24:47;;;;;;;6.00;2.50;;;30.30;75.90;;;;;;4918799;29;20646;-68
2023/06/17 10:27:14;;;;;;;2.78;2.30;;;30.30;74.80;;;;;;4918848;29;20691;-66
2023/06/17 10:29:43;;;;;;;2.90;2.13;;;30.60;77.50;;;;;;4918837;29;20230;-69
2023/06/17 10:32:19;;;;;;;3.90;3.05;;;30.30;72.90;;;;;;4919055;29;20209;-66
2023/06/17 10:35:08;;;;;;;3.70;2.30;;;30.30;74.40;;;;;;4918588;29;20209;-68
2023/06/17 10:37:39;;;;;;;9.88;4.20;;;30.30;77.10;;;;;;4918469;29;20220;-67
2023/06/17 10:40:25;;;;;;;3.67;2.55;;;30.40;75.60;;;;;;4918628;29;20220;-69
2023/06/17 10:43:14;;;;;;;4.10;2.42;;;30.40;73.30;;;;;;4918455;29;20764;-67
2023/06/17 10:45:49;;;;;;;2.72;2.22;;;29.90;75.50;;;;;;4918193;29;20210;-70
2023/06/17 10:48:20;;;;;;;4.93;2.83;;;30.30;76.40;;;;;;4918188;29;20243;-67
2023/06/17 10:50:52;;;;;;;2.50;2.30;;;30.10;75.10;;;;;;4918443;29;20245;-70
2023/06/17 10:53:25;;;;;;;2.45;2.25;;;30.30;73.50;;;;;;4918152;29;20707;-67
2023/06/17 10:55:52;;;;;;;2.80;2.45;;;30.40;74.10;;;;;;4918235;29;20213;-66
2023/06/17 10:58:19;;;;;;;3.17;2.40;;;30.40;74.20;;;;;;4918036;29;20297;-65
2023/06/17 11:00:46;;;;;;;4.03;2.38;;;30.40;75.30;;;;;;4917970;29;20210;-66
2023/06/17 11:03:17;;;;;;;3.47;2.55;;;30.60;74.50;;;;;;4918339;29;20220;-66
2023/06/17 11:05:46;;;;;;;3.65;2.42;;;30.70;73.80;;;;;;4918441;29;20206;-65
2023/06/17 11:08:16;;;;;;;2.72;2.15;;;30.60;74.20;;;;;;4918376;29;20569;-66
2023/06/17 11:10:43;;;;;;;3.97;2.40;;;30.50;71.60;;;;;;4918082;29;20209;-66
2023/06/17 11:13:10;;;;;;;4.40;2.70;;;30.60;72.80;;;;;;4917843;29;20706;-65
2023/06/17 11:15:37;;;;;;;3.95;2.22;;;30.50;76.00;;;;;;4918237;29;20221;-66
2023/06/17 11:18:06;;;;;;;2.85;2.40;;;30.90;74.80;;;;;;4918230;29;20603;-66
2023/06/17 11:20:35;;;;;;;4.22;2.38;;;31.10;73.00;;;;;;4918276;29;20213;-67
2023/06/17 11:23:04;;;;;;;4.13;2.28;;;31.10;72.10;;;;;;4918310;29;20213;-66
2023/06/17 11:25:32;;;;;;;2.58;2.30;;;31.10;73.00;;;;;;4918171;29;20568;-66
2023/06/17 11:27:59;;;;;;;5.78;2.55;;;31.40;74.40;;;;;;4917480;29;20234;-66
2023/06/17 11:30:27;;;;;;;3.03;2.60;;;31.30;75.20;;;;;;4917667;29;20221;-67
2023/06/17 11:32:55;;;;;;;2.85;2.45;;;31.60;76.70;;;;;;4917152;29;20202;-66
2023/06/17 11:35:22;;;;;;;3.35;2.35;;;31.30;72.70;;;;;;4917017;29;20215;-66
2023/06/17 11:37:50;;;;;;;3.47;2.33;;;31.00;70.20;;;;;;4916975;29;20324;-67
2023/06/17 11:40:18;;;;;;;4.10;2.80;;;31.10;70.90;;;;;;4917434;29;20233;-70
2023/06/17 11:42:46;;;;;;;4.90;2.67;;;31.00;75.30;;;;;;4917362;29;20245;-66
2023/06/17 11:45:14;;;;;;;3.08;2.30;;;31.00;77.10;;;;;;4917321;29;20209;-66
2023/06/17 11:47:41;;;;;;;3.22;2.75;;;30.60;75.30;;;;;;4917512;29;20216;-66
2023/06/17 11:50:09;;;;;;;3.08;2.60;;;30.50;73.10;;;;;;4917440;29;20213;-71
2023/06/17 11:52:36;;;;;;;2.28;2.08;;;30.50;72.80;;;;;;4917451;29;20217;-68
2023/06/17 11:55:05;;;;;;;2.90;2.47;;;30.50;72.60;;;;;;4917439;29;20653;-66
2023/06/17 11:57:33;;;;;;;3.25;2.47;;;30.40;72.20;;;;;;4917218;29;20729;-66
2023/06/17 12:00:04;;;;;;;3.20;2.30;;;30.20;73.30;;;;;;4917245;29;20604;-66
2023/06/17 12:02:33;;;;;;;5.53;2.40;;;30.20;75.10;;;;;;4917366;29;20237;-66
2023/06/17 12:05:02;;;;;;;3.13;2.25;;;29.90;74.50;;;;;;4917610;29;20205;-66
2023/06/17 12:07:29;;;;;;;6.75;2.85;;;30.10;74.70;;;;;;4917417;29;20209;-66
2023/06/17 12:09:57;;;;;;;10.57;2.78;;;30.00;74.50;;;;;;4917400;29;20614;-69
2023/06/17 12:12:32;;;;;;;4.93;2.60;;;29.60;75.30;;;;;;4917058;29;20228;-65
2023/06/17 12:15:01;;;;;;;5.20;2.80;;;29.60;74.70;;;;;;4916937;29;20299;-69
2023/06/17 12:17:28;;;;;;;5.68;2.50;;;29.80;74.50;;;;;;4917380;29;20216;-70
2023/06/17 12:20:01;;;;;;;4.75;2.72;;;30.10;74.20;;;;;;4917128;29;20593;-68
2023/06/17 12:22:27;;;;;;;3.50;2.80;;;30.40;74.40;;;;;;4917054;29;20209;-68
2023/06/17 12:24:55;;;;;;;3.72;2.22;;;30.70;80.00;;;;;;4916827;29;20212;-68
2023/06/17 12:27:29;;;;;;;3.00;2.38;;;31.00;73.00;;;;;;4916866;29;20206;-65
2023/06/17 12:29:57;;;;;;;4.22;2.40;;;31.00;71.80;;;;;;4917388;29;20208;-66
2023/06/17 12:32:24;;;;;;;5.18;2.35;;;30.50;72.20;;;;;;4916693;29;20233;-70
2023/06/17 12:34:51;;;;;;;6.55;3.03;;;30.50;72.20;;;;;;4916639;29;20206;-65
2023/06/17 12:37:23;;;;;;;2.85;2.25;;;30.50;75.80;;;;;;4916689;29;20288;-65
2023/06/17 12:39:51;;;;;;;4.47;2.75;;;30.80;72.30;;;;;;4916612;29;20252;-65
2023/06/17 12:42:18;;;;;;;4.05;2.42;;;31.00;76.00;;;;;;4916459;29;20572;-66
2023/06/17 12:44:46;;;;;;;4.15;2.40;;;31.30;72.10;;;;;;4916752;29;20215;-65
2023/06/17 12:47:14;;;;;;;3.28;2.50;;;31.30;71.20;;;;;;4916830;29;20220;-65
2023/06/17 12:49:41;;;;;;;3.45;2.47;;;31.20;72.60;;;;;;4916506;29;20293;-65
2023/06/17 12:52:08;;;;;;;4.82;3.72;;;31.00;73.10;;;;;;4916321;29;20209;-66
2023/06/17 12:54:35;;;;;;;2.92;2.30;;;30.60;73.70;;;;;;4916235;29;20219;-65
2023/06/17 12:57:02;;;;;;;5.38;2.67;;;30.70;72.80;;;;;;4916435;29;20534;-66
2023/06/17 12:59:30;;;;;;;4.13;2.65;;;30.90;75.30;;;;;;4916420;29;20616;-65
2023/06/17 13:01:58;;;;;;;2.75;2.35;;;31.00;73.00;;;;;;4916615;29;20213;-66
2023/06/17 13:04:25;;;;;;;2.65;2.40;;;30.90;75.10;;;;;;4916694;29;20206;-65
2023/06/17 13:06:52;;;;;;;3.45;2.60;;;31.30;75.40;;;;;;4916392;29;20214;-64
2023/06/17 13:09:19;;;;;;;3.35;2.33;;;31.40;70.60;;;;;;4916685;29;20704;-67
2023/06/17 13:11:46;;;;;;;5.47;2.63;;;31.40;76.00;;;;;;4916473;29;20221;-68
2023/06/17 13:14:13;;;;;;;4.10;2.65;;;31.60;72.80;;;;;;4916031;29;20206;-66
2023/06/17 13:16:40;;;;;;;4.55;2.50;;;31.90;71.70;;;;;;4916268;29;20206;-66
2023/06/17 13:19:09;;;;;;;3.53;2.40;;;31.90;73.90;;;;;;4916150;29;20239;-65
2023/06/17 13:21:37;;;;;;;3.25;2.50;;;31.60;72.20;;;;;;4916336;29;20285;-66
2023/06/17 13:24:04;;;;;;;3.83;2.28;;;31.00;71.90;;;;;;4916038;29;20205;-69
2023/06/17 13:26:32;;;;;;;5.35;2.47;;;31.10;70.60;;;;;;4919087;29;20217;-68
2023/06/17 13:29:01;;;;;;;4.00;2.35;;;31.20;69.30;;;;;;4913674;29;20237;-69
2023/06/17 13:31:28;;;;;;;4.70;2.80;;;31.10;71.90;;;;;;4918871;29;20210;-70
2023/06/17 13:33:56;;;;;;;3.33;2.40;;;31.00;73.10;;;;;;4918690;29;20249;-70
2023/06/17 13:36:25;;;;;;;2.95;2.70;;;31.00;70.80;;;;;;4917768;29;20216;-68
2023/06/17 13:38:52;;;;;;;2.90;2.40;;;31.00;75.60;;;;;;4918260;29;20230;-73
2023/06/17 13:41:20;;;;;;;4.38;2.53;;;31.40;73.40;;;;;;4918567;29;20214;-71
2023/06/17 13:43:47;;;;;;;2.83;2.22;;;31.70;72.20;;;;;;4917961;29;20206;-72
2023/06/17 13:46:14;;;;;;;4.82;2.83;;;31.70;71.60;;;;;;4918011;29;20217;-72
2023/06/17 13:48:41;;;;;;;3.88;2.55;;;31.70;71.00;;;;;;4917861;29;20225;-73
2023/06/17 13:51:08;;;;;;;2.80;2.53;;;31.70;69.70;;;;;;4917313;29;20213;-71
2023/06/17 13:53:36;;;;;;;2.75;2.47;;;31.90;71.70;;;;;;4917982;29;20213;-75
2023/06/17 13:56:03;;;;;;;3.63;2.03;;;32.00;71.90;;;;;;4917842;29;20220;-70
2023/06/17 13:58:30;;;;;;;3.13;2.30;;;32.10;72.00;;;;;;4916959;29;20712;-74
2023/06/17 14:00:57;;;;;;;2.42;2.08;;;32.00;70.50;;;;;;4918001;29;20247;-72
2023/06/17 14:03:24;;;;;;;2.83;2.28;;;31.70;69.20;;;;;;4917756;29;20308;-68
2023/06/17 14:05:51;;;;;;;3.45;2.35;;;31.50;71.00;;;;;;4917539;29;20304;-69
2023/06/17 14:08:18;;;;;;;2.92;2.33;;;31.40;73.00;;;;;;4917948;29;20316;-74
2023/06/17 14:10:46;;;;;;;4.95;2.53;;;31.30;73.80;;;;;;4917976;29;20224;-70
2023/06/17 14:13:14;;;;;;;2.08;1.88;;;31.30;72.10;;;;;;4917255;29;20213;-69
2023/06/17 14:15:40;;;;;;;2.25;2.03;;;31.10;72.90;;;;;;4918727;29;20216;-71
2023/06/17 14:18:07;;;;;;;3.60;2.35;;;31.30;72.00;;;;;;4919151;29;20828;-70
2023/06/17 14:20:34;;;;;;;2.30;2.03;;;31.30;74.10;;;;;;4919433;29;20247;-72
2023/06/17 14:23:03;;;;;;;3.00;2.25;;;31.40;73.90;;;;;;4919423;29;20206;-69
2023/06/17 14:25:30;;;;;;;2.28;2.08;;;31.50;73.90;;;;;;4919396;29;20213;-71
2023/06/17 14:27:58;;;;;;;3.05;2.17;;;31.00;72.10;;;;;;4919029;29;20241;-70
2023/06/17 14:30:25;;;;;;;2.47;2.08;;;31.10;72.10;;;;;;4919119;29;20558;-72
2023/06/17 14:32:52;;;;;;;3.35;2.20;;;31.20;70.50;;;;;;4918960;29;20213;-72
2023/06/17 14:35:19;;;;;;;2.28;2.00;;;31.50;73.10;;;;;;4918877;29;20213;-70
2023/06/17 14:37:48;;;;;;;3.17;2.40;;;31.50;71.80;;;;;;4918211;29;20550;-70
2023/06/17 14:40:16;;;;;;;2.90;2.28;;;31.40;71.00;;;;;;4918886;29;20269;-70
2023/06/17 14:42:43;;;;;;;2.50;2.30;;;31.40;73.20;;;;;;4918978;29;20214;-70
2023/06/17 14:45:14;;;;;;;2.80;2.10;;;31.60;72.20;;;;;;4918640;29;20226;-73
2023/06/17 14:47:41;;;;;;;4.22;2.40;;;31.60;71.30;;;;;;4918768;29;20661;-73
2023/06/17 14:50:10;;;;;;;7.10;2.40;;;31.60;72.30;;;;;;4918738;29;20209;-69
2023/06/17 14:52:37;;;;;;;3.35;2.15;;;31.10;71.40;;;;;;4918960;29;20210;-73
2023/06/17 14:55:06;;;;;;;5.82;2.20;;;31.30;72.90;;;;;;4918659;29;20296;-69
2023/06/17 14:57:33;;;;;;;3.28;2.20;;;31.30;72.40;;;;;;4918464;29;20209;-73
2023/06/17 15:00:00;;;;;;;2.38;2.03;;;31.40;73.30;;;;;;4918582;29;20233;-70
2023/06/17 15:02:46;;;;;;;3.85;2.33;;;31.40;71.00;;;;;;4918372;29;20245;-74
2023/06/17 15:05:13;;;;;;;2.58;2.25;;;31.20;71.90;;;;;;4918079;29;20209;-71
2023/06/17 15:07:40;;;;;;;3.15;2.50;;;31.00;71.90;;;;;;4918105;29;20205;-69
2023/06/17 15:10:07;;;;;;;4.43;2.50;;;31.00;71.40;;;;;;4918728;29;20214;-71
2023/06/17 15:12:37;;;;;;;3.38;2.20;;;31.00;73.60;;;;;;4918798;29;20308;-69
2023/06/17 15:15:04;;;;;;;2.88;2.10;;;30.90;72.10;;;;;;4918912;29;20296;-71
2023/06/17 15:17:32;;;;;;;2.83;2.40;;;30.80;72.20;;;;;;4918717;29;20213;-69
2023/06/17 15:20:00;;;;;;;2.55;2.20;;;30.70;73.50;;;;;;4918229;29;20328;-69
2023/06/17 15:22:27;;;;;;;4.35;2.65;;;30.70;71.00;;;;;;4918264;29;20224;-70
2023/06/17 15:24:56;;;;;;;3.13;2.42;;;30.70;70.00;;;;;;4918036;29;20217;-69
2023/06/17 15:27:23;;;;;;;2.30;2.10;;;30.60;70.20;;;;;;4917981;29;20241;-72
2023/06/17 15:29:50;;;;;;;4.63;2.40;;;30.70;69.70;;;;;;4917728;29;20238;-71
2023/06/17 15:32:17;;;;;;;2.60;2.15;;;30.80;70.60;;;;;;4918434;29;20216;-69
2023/06/17 15:34:43;;;;;;;4.22;2.28;;;30.90;70.70;;;;;;4920788;29;20218;-70
2023/06/17 15:37:12;;;;;;;2.92;2.28;;;31.00;70.10;;;;;;4919158;29;20656;-70
2023/06/17 15:39:39;;;;;;;4.30;3.03;;;31.10;72.60;;;;;;4917664;29;20237;-70
2023/06/17 15:42:06;;;;;;;2.50;2.25;;;31.10;73.00;;;;;;4917845;29;20213;-69
2023/06/17 15:44:32;;;;;;;2.92;2.38;;;31.10;75.40;;;;;;4917855;29;20209;-70
2023/06/17 15:46:59;;;;;;;4.05;2.70;;;31.10;74.10;;;;;;4917432;29;20212;-71
2023/06/17 15:49:26;;;;;;;4.90;2.60;;;31.10;76.30;;;;;;4917444;29;21211;-69
2023/06/17 15:51:53;;;;;;;3.08;2.63;;;31.00;75.40;;;;;;4917782;29;20224;-70
2023/06/17 15:54:25;;;;;;;3.03;2.53;;;31.10;74.40;;;;;;4917670;29;20569;-70
2023/06/17 15:56:52;;;;;;;3.30;2.28;;;31.00;76.40;;;;;;4917792;29;20209;-73
2023/06/17 15:59:19;;;;;;;2.88;2.35;;;30.80;72.00;;;;;;4917487;29;20566;-73
2023/06/17 16:01:46;;;;;;;3.90;2.33;;;30.80;74.60;;;;;;4917437;29;20248;-74
2023/06/17 16:04:33;;;;;;;3.15;2.58;;;30.70;73.70;;;;;;4917473;29;20209;-72
2023/06/17 16:07:01;;;;;;;6.00;2.50;;;30.60;74.70;;;;;;4917416;29;20210;-72
2023/06/17 16:09:32;;;;;;;5.07;2.60;;;30.60;76.10;;;;;;4917488;29;20598;-74
2023/06/17 16:11:59;;;;;;;3.20;2.13;;;30.50;73.30;;;;;;4917499;29;20226;-73
2023/06/17 16:14:26;;;;;;;2.88;2.30;;;30.60;75.20;;;;;;4917296;29;20213;-70
2023/06/17 16:16:53;;;;;;;3.50;2.38;;;30.60;77.50;;;;;;4917022;29;20569;-74
2023/06/17 16:19:21;;;;;;;2.33;2.13;;;30.50;76.00;;;;;;4917411;29;20320;-74
2023/06/17 16:21:48;;;;;;;3.05;2.53;;;30.30;74.90;;;;;;4917324;29;20712;-74
2023/06/17 16:24:15;;;;;;;4.45;2.42;;;30.40;74.70;;;;;;4917330;29;20214;-73
2023/06/17 16:26:43;;;;;;;3.45;2.08;;;30.50;74.70;;;;;;4917003;29;20217;-74
2023/06/17 16:29:11;;;;;;;2.50;2.05;;;30.60;75.50;;;;;;4916598;29;20240;-74
2023/06/17 16:31:38;;;;;;;5.25;2.50;;;30.60;74.50;;;;;;4917291;29;20213;-70
2023/06/17 16:34:05;;;;;;;4.00;2.20;;;30.50;73.50;;;;;;4916848;29;20305;-71
2023/06/17 16:36:31;;;;;;;2.95;2.33;;;30.40;74.20;;;;;;4916794;29;20302;-74
2023/06/17 16:38:58;;;;;;;2.78;2.45;;;30.40;75.10;;;;;;4916635;29;20229;-73
2023/06/17 16:41:25;;;;;;;4.68;2.13;;;30.40;75.20;;;;;;4916626;29;20240;-72
2023/06/17 16:43:53;;;;;;;13.18;2.25;;;30.40;75.70;;;;;;4916586;29;20226;-69
2023/06/17 16:46:20;;;;;;;2.97;2.33;;;30.40;75.10;;;;;;4916739;29;20232;-70
2023/06/17 16:48:47;;;;;;;3.63;2.20;;;30.30;75.30;;;;;;4917100;29;20241;-70
2023/06/17 16:51:15;;;;;;;3.33;2.45;;;30.20;75.60;;;;;;4916787;29;20577;-70
2023/06/17 16:53:41;;;;;;;3.65;2.80;;;30.10;76.20;;;;;;4916802;29;20691;-69
2023/06/17 16:56:08;;;;;;;4.05;2.38;;;29.90;76.90;;;;;;4916748;29;20210;-69
2023/06/17 16:58:35;;;;;;;4.38;2.70;;;29.80;76.80;;;;;;4916073;29;20256;-70
2023/06/17 17:01:03;;;;;;;3.13;2.25;;;29.80;76.70;;;;;;4916253;29;20707;-69
2023/06/17 17:03:30;;;;;;;5.43;2.63;;;29.80;76.90;;;;;;4916682;29;20215;-69
2023/06/17 17:05:57;;;;;;;4.38;2.47;;;29.80;76.90;;;;;;4916643;29;20598;-72
2023/06/17 17:08:25;;;;;;;3.10;2.47;;;29.90;78.10;;;;;;4916377;29;20235;-70
2023/06/17 17:10:52;;;;;;;3.17;2.35;;;29.80;78.10;;;;;;4916570;29;20209;-73
2023/06/17 17:13:18;;;;;;;3.60;2.40;;;29.60;77.20;;;;;;4916732;29;20241;-69
2023/06/17 17:15:46;;;;;;;3.45;2.35;;;29.60;78.10;;;;;;4916637;29;20216;-69
2023/06/17 17:18:14;;;;;;;6.47;2.60;;;29.60;78.20;;;;;;4916541;29;20279;-68
2023/06/17 17:20:41;;;;;;;3.60;2.53;;;29.50;77.00;;;;;;4916670;29;20653;-69
2023/06/17 17:23:08;;;;;;;4.78;2.83;;;29.40;78.00;;;;;;4916513;29;20220;-69
2023/06/17 17:25:36;;;;;;;3.58;2.60;;;29.30;80.80;;;;;;4916416;29;20264;-69
2023/06/17 17:28:03;;;;;;;7.15;2.85;;;29.30;89.00;;;;;;4916323;29;20281;-71
2023/06/17 17:30:30;;;;;;;3.45;2.30;;;28.60;89.90;;;;;;4916411;29;20593;-68
2023/06/17 17:32:57;;;;;;;5.38;2.40;;;27.80;91.60;;;;;;4916798;29;20209;-69
2023/06/17 17:35:25;;;;;;;3.78;2.45;;;27.20;91.70;;;;;;4916289;29;20206;-69
2023/06/17 17:37:52;;;;;;;3.80;2.30;;;26.70;92.00;;;;;;4916301;29;20273;-69
2023/06/17 17:40:19;;;;;;;5.72;2.50;;;26.40;93.50;;;;;;4916729;29;20321;-68
2023/06/17 17:42:46;;;;;;;3.92;2.72;;;26.20;95.20;;;;;;4916210;29;20212;-69
2023/06/17 17:45:14;;;;;;;4.90;2.42;;;25.90;94.80;;;;;;4916593;29;20288;-69
2023/06/17 17:47:41;;;;;;;3.92;2.90;;;25.90;96.70;;;;;;4916070;29;20696;-70
2023/06/17 17:50:08;;;;;;;4.13;2.80;;;25.90;96.20;;;;;;4916098;29;20224;-68
2023/06/17 17:52:36;;;;;;;5.32;3.70;;;25.80;96.70;;;;;;4916309;29;20209;-69
2023/06/17 17:55:03;;;;;;;4.00;3.30;;;25.80;96.90;;;;;;4916423;29;20220;-70
2023/06/17 17:57:30;;;;;;;6.60;3.40;;;25.90;95.40;;;;;;4916410;29;20209;-69
2023/06/17 17:59:57;;;;;;;4.30;2.88;;;25.80;97.20;;;;;;4916292;29;20209;-69
2023/06/17 18:02:25;;;;;;;3.55;2.60;;;25.80;96.90;;;;;;4916035;29;20241;-68
2023/06/17 18:04:51;;;;;;;4.53;3.00;;;25.60;97.90;;;;;;4916218;29;20352;-69
2023/06/17 18:07:18;;;;;;;5.32;3.38;;;25.60;97.50;;;;;;4916586;29;20216;-72
2023/06/17 18:09:47;;;;;;;5.68;3.03;;;25.80;97.50;;;;;;4916365;29;20234;-69
2023/06/17 18:12:14;;;;;;;5.32;3.47;;;25.80;97.70;;;;;;4919058;29;20244;-71
2023/06/17 18:14:41;;;;;;;3.67;2.80;;;25.90;97.20;;;;;;4919282;29;20210;-70
2023/06/17 18:17:07;;;;;;;4.78;3.60;;;25.90;97.10;;;;;;4919389;29;20229;-69
2023/06/17 18:19:34;;;;;;;5.30;3.38;;;25.90;97.20;;;;;;4919287;29;20592;-69
2023/06/17 18:22:01;;;;;;;6.80;3.50;;;26.00;96.90;;;;;;4919253;29;20248;-70
2023/06/17 18:24:28;;;;;;;7.00;3.78;;;26.00;97.30;;;;;;4919394;29;20209;-69
2023/06/17 18:26:56;;;;;;;4.53;3.70;;;26.10;98.00;;;;;;4919094;29;20213;-69
2023/06/17 18:29:23;;;;;;;5.82;3.15;;;26.10;97.40;;;;;;4919055;29;20234;-70
2023/06/17 18:31:51;;;;;;;6.55;2.90;;;26.00;97.10;;;;;;4919252;29;20607;-69
2023/06/17 18:34:18;;;;;;;4.63;2.92;;;25.80;97.00;;;;;;4919087;29;20703;-71
2023/06/17 18:36:45;;;;;;;5.03;3.80;;;25.80;96.50;;;;;;4919125;29;20292;-70
2023/06/17 18:39:12;;;;;;;5.32;3.50;;;25.80;96.80;;;;;;4918936;29;20225;-70
2023/06/17 18:41:41;;;;;;;5.60;3.70;;;25.80;97.50;;;;;;4918632;29;20712;-69
2023/06/17 18:44:10;;;;;;;4.03;2.97;;;25.80;97.30;;;;;;4918822;29;20206;-69
2023/06/17 18:46:37;;;;;;;5.50;3.60;;;25.90;97.20;;;;;;4918879;29;20291;-69
2023/06/17 18:49:06;;;;;;;5.38;3.20;;;25.80;97.20;;;;;;4919061;29;20277;-70
2023/06/17 18:51:33;;;;;;;4.43;3.20;;;25.80;96.90;;;;;;4919072;29;20253;-69
2023/06/17 18:54:00;;;;;;;4.68;3.38;;;25.80;97.80;;;;;;4918785;29;20215;-70
2023/06/17 18:56:27;;;;;;;5.95;4.35;;;25.60;97.50;;;;;;4918976;29;20573;-69
2023/06/17 18:58:54;;;;;;;7.32;5.00;;;25.60;97.40;;;;;;4918628;29;20320;-69
2023/06/17 19:01:22;;;;;;;7.97;5.60;;;25.60;97.50;;;;;;4918739;29;20332;-69
2023/06/17 19:03:49;;;;;;;12.60;8.25;;;25.60;97.00;;;;;;4918695;29;20218;-69
2023/06/17 19:06:16;;;;;;;5.38;4.38;;;25.50;96.90;;;;;;4918296;29;20316;-69
2023/06/17 19:08:43;;;;;;;8.10;5.30;;;25.60;97.50;;;;;;4919135;29;20229;-70
2023/06/17 19:11:12;;;;;;;6.72;4.65;;;25.50;97.60;;;;;;4918353;29;20225;-74
2023/06/17 19:13:39;;;;;;;7.57;4.40;;;25.50;98.20;;;;;;4918083;29;20214;-69
2023/06/17 19:16:06;;;;;;;5.93;3.95;;;25.40;98.00;;;;;;4918357;29;20739;-69
2023/06/17 19:18:34;;;;;;;5.30;3.30;;;25.40;98.10;;;;;;4917895;29;20318;-70
2023/06/17 19:21:01;;;;;;;4.95;3.40;;;25.50;98.40;;;;;;4918304;29;20265;-70
2023/06/17 19:23:28;;;;;;;4.20;3.17;;;25.40;98.70;;;;;;4917787;29;20212;-70
2023/06/17 19:25:54;;;;;;;4.57;3.30;;;25.30;98.80;;;;;;4918313;29;20588;-69
2023/06/17 19:28:22;;;;;;;4.43;3.13;;;25.20;98.40;;;;;;4918060;29;20234;-69
2023/06/17 19:30:49;;;;;;;5.78;3.47;;;25.20;98.40;;;;;;4918451;29;20221;-69
2023/06/17 19:33:17;;;;;;;4.00;2.97;;;25.10;98.10;;;;;;4918104;29;20209;-69
2023/06/17 19:35:45;;;;;;;8.60;3.78;;;25.10;98.20;;;;;;4918052;29;20218;-69
2023/06/17 19:38:12;;;;;;;6.07;3.50;;;25.10;98.80;;;;;;4917834;29;20588;-69
2023/06/17 19:40:39;;;;;;;8.52;3.60;;;25.00;99.30;;;;;;4917871;29;20661;-70
2023/06/17 19:43:05;;;;;;;4.88;3.33;;;25.00;98.80;;;;;;4917638;29;20209;-69
2023/06/17 19:45:33;;;;;;;5.63;3.53;;;24.90;98.80;;;;;;4917816;29;20673;-69
2023/06/17 19:48:02;;;;;;;4.65;3.67;;;24.90;99.20;;;;;;4917563;29;20226;-69
2023/06/17 19:50:29;;;;;;;6.10;3.92;;;24.90;99.50;;;;;;4917727;29;20257;-69
2023/06/17 19:52:57;;;;;;;5.70;3.55;;;24.70;99.60;;;;;;4917788;29;20665;-69
2023/06/17 19:55:24;;;;;;;5.90;3.50;;;24.60;99.60;;;;;;4917425;29;20577;-71
2023/06/17 19:57:52;;;;;;;5.68;3.50;;;24.50;99.90;;;;;;4917179;29;20237;-72
2023/06/17 20:00:19;;;;;;;4.65;3.55;;;24.40;99.90;;;;;;4917475;29;20416;-70